sensor_id;sensor_type;location;lat;lon;timestamp;temperature;humidity
50969;DHT22;36982;51.474;7.228;2023-11-22T00:00:10;5.60;99.90
50969;DHT22;36982;51.474;7.228;2023-11-22T00:02:37;5.60;99.90
50969;DHT22;36982;51.474;7.228;2023-11-22T00:05:03;5.70;99.90
50969;DHT22;36982;51.474;7.228;2023-11-22T00:07:33;5.70;99.90
50969;DHT22;36982;51.474;7.228;2023-11-22T00:09:59;5.60;99.90
50969;DHT22;36982;51.474;7.228;2023-11-22T00:12:27;5.60;99.90
50969;DHT22;36982;51.474;7.228;2023-11-22T00:14:53;5.60;99.90
50969;DHT22;36982;51.474;7.228;2023-11-22T00:17:19;5.60;99.90
50969;DHT22;36982;51.474;7.228;2023-11-22T00:19:45;5.60;99.90
50969;DHT22;36982;51.474;7.228;2023-11-22T00:22:11;5.60;99.90
50969;DHT22;36982;51.474;7.228;2023-11-22T00:24:39;5.70;99.90
50969;DHT22;36982;51.474;7.228;2023-11-22T00:27:05;5.60;99.90
50969;DHT22;36982;51.474;7.228;2023-11-22T00:29:31;5.50;99.90
50969;DHT22;36982;51.474;7.228;2023-11-22T00:31:57;5.60;99.90
50969;DHT22;36982;51.474;7.228;2023-11-22T00:34:23;5.60;99.90
50969;DHT22;36982;51.474;7.228;2023-11-22T00:36:48;5.60;99.90
50969;DHT22;36982;51.474;7.228;2023-11-22T00:39:15;5.60;99.90
50969;DHT22;36982;51.474;7.228;2023-11-22T00:41:41;5.60;99.90
50969;DHT22;36982;51.474;7.228;2023-11-22T00:44:07;5.50;99.90
50969;DHT22;36982;51.474;7.228;2023-11-22T00:46:32;5.60;99.90
50969;DHT22;36982;51.474;7.228;2023-11-22T00:48:58;5.50;99.90
50969;DHT22;36982;51.474;7.228;2023-11-22T00:51:24;5.50;99.90
50969;DHT22;36982;51.474;7.228;2023-11-22T00:53:49;5.60;99.90
50969;DHT22;36982;51.474;7.228;2023-11-22T00:56:16;5.50;99.90
50969;DHT22;36982;51.474;7.228;2023-11-22T00:58:42;5.50;99.90
50969;DHT22;36982;51.474;7.228;2023-11-22T01:01:08;5.40;99.90
50969;DHT22;36982;51.474;7.228;2023-11-22T01:03:34;5.40;99.90
50969;DHT22;36982;51.474;7.228;2023-11-22T01:06:00;5.40;99.90
50969;DHT22;36982;51.474;7.228;2023-11-22T01:08:26;5.40;99.90
50969;DHT22;36982;51.474;7.228;2023-11-22T01:10:52;5.30;99.90
50969;DHT22;36982;51.474;7.228;2023-11-22T01:13:18;5.20;99.90
50969;DHT22;36982;51.474;7.228;2023-11-22T01:15:43;5.20;99.90
50969;DHT22;36982;51.474;7.228;2023-11-22T01:18:10;5.30;99.90
50969;DHT22;36982;51.474;7.228;2023-11-22T01:20:36;5.30;99.90
50969;DHT22;36982;51.474;7.228;2023-11-22T01:23:01;5.30;99.90
50969;DHT22;36982;51.474;7.228;2023-11-22T01:25:27;5.30;99.90
50969;DHT22;36982;51.474;7.228;2023-11-22T01:27:53;5.20;99.90
50969;DHT22;36982;51.474;7.228;2023-11-22T01:30:19;5.30;99.90
50969;DHT22;36982;51.474;7.228;2023-11-22T01:32:44;5.30;99.90
50969;DHT22;36982;51.474;7.228;2023-11-22T01:35:10;5.30;99.90
50969;DHT22;36982;51.474;7.228;2023-11-22T01:37:36;5.30;99.90
50969;DHT22;36982;51.474;7.228;2023-11-22T01:40:02;5.30;99.90
50969;DHT22;36982;51.474;7.228;2023-11-22T01:42:29;5.20;99.90
50969;DHT22;36982;51.474;7.228;2023-11-22T01:44:54;5.20;99.90
50969;DHT22;36982;51.474;7.228;2023-11-22T01:47:21;5.10;99.90
50969;DHT22;36982;51.474;7.228;2023-11-22T01:49:46;5.00;99.90
50969;DHT22;36982;51.474;7.228;2023-11-22T01:52:13;5.00;99.90
50969;DHT22;36982;51.474;7.228;2023-11-22T01:54:39;5.00;99.90
50969;DHT22;36982;51.474;7.228;2023-11-22T01:57:06;5.00;99.90
50969;DHT22;36982;51.474;7.228;2023-11-22T01:59:34;5.10;99.90
50969;DHT22;36982;51.474;7.228;2023-11-22T02:02:00;5.00;99.90
50969;DHT22;36982;51.474;7.228;2023-11-22T02:04:25;5.10;99.90
50969;DHT22;36982;51.474;7.228;2023-11-22T02:06:52;5.00;99.90
50969;DHT22;36982;51.474;7.228;2023-11-22T02:09:17;5.10;99.90
50969;DHT22;36982;51.474;7.228;2023-11-22T02:11:44;5.10;99.90
50969;DHT22;36982;51.474;7.228;2023-11-22T02:14:14;5.10;99.90
50969;DHT22;36982;51.474;7.228;2023-11-22T02:16:40;5.10;99.90
50969;DHT22;36982;51.474;7.228;2023-11-22T02:19:08;5.10;99.90
50969;DHT22;36982;51.474;7.228;2023-11-22T02:21:39;5.10;99.90
50969;DHT22;36982;51.474;7.228;2023-11-22T02:24:05;5.20;99.90
50969;DHT22;36982;51.474;7.228;2023-11-22T02:26:30;5.10;99.90
50969;DHT22;36982;51.474;7.228;2023-11-22T02:28:56;5.00;99.90
50969;DHT22;36982;51.474;7.228;2023-11-22T02:31:22;5.00;99.90
50969;DHT22;36982;51.474;7.228;2023-11-22T02:33:49;5.00;99.90
50969;DHT22;36982;51.474;7.228;2023-11-22T02:36:15;4.90;99.90
50969;DHT22;36982;51.474;7.228;2023-11-22T02:38:40;5.00;99.90
50969;DHT22;36982;51.474;7.228;2023-11-22T02:41:07;4.90;99.90
50969;DHT22;36982;51.474;7.228;2023-11-22T02:43:34;4.90;99.90
50969;DHT22;36982;51.474;7.228;2023-11-22T02:46:01;5.00;99.90
50969;DHT22;36982;51.474;7.228;2023-11-22T02:48:26;4.80;99.90
50969;DHT22;36982;51.474;7.228;2023-11-22T02:50:52;4.80;99.90
50969;DHT22;36982;51.474;7.228;2023-11-22T02:53:19;4.80;99.90
50969;DHT22;36982;51.474;7.228;2023-11-22T02:55:45;4.90;99.90
50969;DHT22;36982;51.474;7.228;2023-11-22T02:58:11;4.80;99.90
50969;DHT22;36982;51.474;7.228;2023-11-22T03:00:39;4.90;99.90
50969;DHT22;36982;51.474;7.228;2023-11-22T03:03:05;4.80;99.90
50969;DHT22;36982;51.474;7.228;2023-11-22T03:05:35;4.80;99.90
50969;DHT22;36982;51.474;7.228;2023-11-22T03:08:03;4.70;99.90
50969;DHT22;36982;51.474;7.228;2023-11-22T03:10:28;4.60;99.90
50969;DHT22;36982;51.474;7.228;2023-11-22T03:12:55;4.50;99.90
50969;DHT22;36982;51.474;7.228;2023-11-22T03:15:21;4.40;99.90
50969;DHT22;36982;51.474;7.228;2023-11-22T03:17:47;4.40;99.90
50969;DHT22;36982;51.474;7.228;2023-11-22T03:20:14;4.40;99.90
50969;DHT22;36982;51.474;7.228;2023-11-22T03:22:41;4.30;99.90
50969;DHT22;36982;51.474;7.228;2023-11-22T03:25:09;4.20;99.90
50969;DHT22;36982;51.474;7.228;2023-11-22T03:27:36;4.20;99.90
50969;DHT22;36982;51.474;7.228;2023-11-22T03:30:01;4.10;99.90
50969;DHT22;36982;51.474;7.228;2023-11-22T03:32:27;4.10;99.90
50969;DHT22;36982;51.474;7.228;2023-11-22T03:34:54;4.10;99.90
50969;DHT22;36982;51.474;7.228;2023-11-22T03:37:20;4.10;99.90
50969;DHT22;36982;51.474;7.228;2023-11-22T03:39:45;4.00;99.90
50969;DHT22;36982;51.474;7.228;2023-11-22T03:42:14;4.00;99.90
50969;DHT22;36982;51.474;7.228;2023-11-22T03:44:41;4.00;99.90
50969;DHT22;36982;51.474;7.228;2023-11-22T03:47:07;3.90;99.90
50969;DHT22;36982;51.474;7.228;2023-11-22T03:49:33;3.80;99.90
50969;DHT22;36982;51.474;7.228;2023-11-22T03:51:58;3.80;99.90
50969;DHT22;36982;51.474;7.228;2023-11-22T03:54:24;3.70;99.90
50969;DHT22;36982;51.474;7.228;2023-11-22T03:56:49;3.80;99.90
50969;DHT22;36982;51.474;7.228;2023-11-22T03:59:16;3.70;99.90
50969;DHT22;36982;51.474;7.228;2023-11-22T04:01:41;3.70;99.90
50969;DHT22;36982;51.474;7.228;2023-11-22T04:04:07;3.60;99.90
50969;DHT22;36982;51.474;7.228;2023-11-22T04:06:35;3.60;99.90
50969;DHT22;36982;51.474;7.228;2023-11-22T04:09:00;3.60;99.90
50969;DHT22;36982;51.474;7.228;2023-11-22T04:11:27;3.50;99.90
50969;DHT22;36982;51.474;7.228;2023-11-22T04:13:54;3.50;99.90
50969;DHT22;36982;51.474;7.228;2023-11-22T04:16:20;3.50;99.90
50969;DHT22;36982;51.474;7.228;2023-11-22T04:18:46;3.50;99.90
50969;DHT22;36982;51.474;7.228;2023-11-22T04:21:11;3.40;99.90
50969;DHT22;36982;51.474;7.228;2023-11-22T04:23:37;3.40;99.90
50969;DHT22;36982;51.474;7.228;2023-11-22T04:26:03;3.30;99.90
50969;DHT22;36982;51.474;7.228;2023-11-22T04:28:29;3.30;99.90
50969;DHT22;36982;51.474;7.228;2023-11-22T04:30:57;3.30;99.90
50969;DHT22;36982;51.474;7.228;2023-11-22T04:33:24;3.30;99.90
50969;DHT22;36982;51.474;7.228;2023-11-22T04:35:50;3.30;99.90
50969;DHT22;36982;51.474;7.228;2023-11-22T04:38:16;3.30;99.90
50969;DHT22;36982;51.474;7.228;2023-11-22T04:40:43;3.30;99.90
50969;DHT22;36982;51.474;7.228;2023-11-22T04:43:09;3.30;99.90
50969;DHT22;36982;51.474;7.228;2023-11-22T04:45:34;3.30;99.90
50969;DHT22;36982;51.474;7.228;2023-11-22T04:48:00;3.20;99.90
50969;DHT22;36982;51.474;7.228;2023-11-22T04:50:26;3.20;99.90
50969;DHT22;36982;51.474;7.228;2023-11-22T04:52:51;3.10;99.90
50969;DHT22;36982;51.474;7.228;2023-11-22T04:55:17;3.10;99.90
50969;DHT22;36982;51.474;7.228;2023-11-22T04:57:45;3.10;99.90
50969;DHT22;36982;51.474;7.228;2023-11-22T05:00:11;3.10;99.90
50969;DHT22;36982;51.474;7.228;2023-11-22T05:02:38;3.10;99.90
50969;DHT22;36982;51.474;7.228;2023-11-22T05:05:03;3.10;99.90
50969;DHT22;36982;51.474;7.228;2023-11-22T05:07:29;3.00;99.90
50969;DHT22;36982;51.474;7.228;2023-11-22T05:09:55;2.90;99.90
50969;DHT22;36982;51.474;7.228;2023-11-22T05:12:20;3.00;99.90
50969;DHT22;36982;51.474;7.228;2023-11-22T05:14:46;3.10;99.90
50969;DHT22;36982;51.474;7.228;2023-11-22T05:17:12;3.10;99.90
50969;DHT22;36982;51.474;7.228;2023-11-22T05:19:38;3.10;99.90
50969;DHT22;36982;51.474;7.228;2023-11-22T05:22:04;3.00;99.90
50969;DHT22;36982;51.474;7.228;2023-11-22T05:24:30;3.00;99.90
50969;DHT22;36982;51.474;7.228;2023-11-22T05:26:56;2.90;99.90
50969;DHT22;36982;51.474;7.228;2023-11-22T05:29:21;3.00;99.90
50969;DHT22;36982;51.474;7.228;2023-11-22T05:31:47;2.90;99.90
50969;DHT22;36982;51.474;7.228;2023-11-22T05:34:13;2.90;99.90
50969;DHT22;36982;51.474;7.228;2023-11-22T05:36:38;2.90;99.90
50969;DHT22;36982;51.474;7.228;2023-11-22T05:39:04;3.00;99.90
50969;DHT22;36982;51.474;7.228;2023-11-22T05:41:30;3.00;99.90
50969;DHT22;36982;51.474;7.228;2023-11-22T05:43:55;2.90;99.90
50969;DHT22;36982;51.474;7.228;2023-11-22T05:46:24;2.80;99.90
50969;DHT22;36982;51.474;7.228;2023-11-22T05:48:54;2.80;99.90
50969;DHT22;36982;51.474;7.228;2023-11-22T05:51:20;2.80;99.90
50969;DHT22;36982;51.474;7.228;2023-11-22T05:53:46;2.80;99.90
50969;DHT22;36982;51.474;7.228;2023-11-22T05:56:12;2.70;99.90
50969;DHT22;36982;51.474;7.228;2023-11-22T05:58:38;2.80;99.90
50969;DHT22;36982;51.474;7.228;2023-11-22T06:01:07;2.80;99.90
50969;DHT22;36982;51.474;7.228;2023-11-22T06:03:34;2.70;99.90
50969;DHT22;36982;51.474;7.228;2023-11-22T06:05:59;2.70;99.90
50969;DHT22;36982;51.474;7.228;2023-11-22T06:08:25;2.70;99.90
50969;DHT22;36982;51.474;7.228;2023-11-22T06:10:51;2.70;99.90
50969;DHT22;36982;51.474;7.228;2023-11-22T06:13:18;2.70;99.90
50969;DHT22;36982;51.474;7.228;2023-11-22T06:15:44;2.70;99.90
50969;DHT22;36982;51.474;7.228;2023-11-22T06:18:10;2.70;99.90
50969;DHT22;36982;51.474;7.228;2023-11-22T06:20:36;2.60;99.90
50969;DHT22;36982;51.474;7.228;2023-11-22T06:23:01;2.60;99.90
50969;DHT22;36982;51.474;7.228;2023-11-22T06:25:27;2.50;99.90
50969;DHT22;36982;51.474;7.228;2023-11-22T06:27:53;2.40;99.90
50969;DHT22;36982;51.474;7.228;2023-11-22T06:30:18;2.50;99.90
50969;DHT22;36982;51.474;7.228;2023-11-22T06:32:44;2.50;99.90
50969;DHT22;36982;51.474;7.228;2023-11-22T06:35:10;2.50;99.90
50969;DHT22;36982;51.474;7.228;2023-11-22T06:37:40;2.50;99.90
50969;DHT22;36982;51.474;7.228;2023-11-22T06:40:06;2.40;99.90
50969;DHT22;36982;51.474;7.228;2023-11-22T06:42:32;2.30;99.90
50969;DHT22;36982;51.474;7.228;2023-11-22T06:44:59;2.30;99.90
50969;DHT22;36982;51.474;7.228;2023-11-22T06:47:26;2.30;99.90
50969;DHT22;36982;51.474;7.228;2023-11-22T06:49:55;2.30;99.90
50969;DHT22;36982;51.474;7.228;2023-11-22T06:52:20;2.30;99.90
50969;DHT22;36982;51.474;7.228;2023-11-22T06:54:46;2.10;99.90
50969;DHT22;36982;51.474;7.228;2023-11-22T06:57:11;2.20;99.90
50969;DHT22;36982;51.474;7.228;2023-11-22T06:59:37;2.20;99.90
50969;DHT22;36982;51.474;7.228;2023-11-22T07:02:03;2.20;99.90
50969;DHT22;36982;51.474;7.228;2023-11-22T07:04:29;2.10;99.90
50969;DHT22;36982;51.474;7.228;2023-11-22T07:06:54;2.20;99.90
50969;DHT22;36982;51.474;7.228;2023-11-22T07:09:20;2.20;99.90
50969;DHT22;36982;51.474;7.228;2023-11-22T07:11:45;2.20;99.90
50969;DHT22;36982;51.474;7.228;2023-11-22T07:14:11;2.20;99.90
50969;DHT22;36982;51.474;7.228;2023-11-22T07:16:37;2.20;99.90
50969;DHT22;36982;51.474;7.228;2023-11-22T07:19:03;2.20;99.90
50969;DHT22;36982;51.474;7.228;2023-11-22T07:21:29;2.10;99.90
50969;DHT22;36982;51.474;7.228;2023-11-22T07:23:57;2.20;99.90
50969;DHT22;36982;51.474;7.228;2023-11-22T07:26:24;2.20;99.90
50969;DHT22;36982;51.474;7.228;2023-11-22T07:28:52;2.20;99.90
50969;DHT22;36982;51.474;7.228;2023-11-22T07:31:18;2.20;99.90
50969;DHT22;36982;51.474;7.228;2023-11-22T07:33:45;2.20;99.90
50969;DHT22;36982;51.474;7.228;2023-11-22T07:36:11;2.20;99.90
50969;DHT22;36982;51.474;7.228;2023-11-22T07:38:40;2.20;99.90
50969;DHT22;36982;51.474;7.228;2023-11-22T07:41:06;2.20;99.90
50969;DHT22;36982;51.474;7.228;2023-11-22T07:43:32;2.30;99.90
50969;DHT22;36982;51.474;7.228;2023-11-22T07:45:58;2.30;99.90
50969;DHT22;36982;51.474;7.228;2023-11-22T07:48:25;2.20;99.90
50969;DHT22;36982;51.474;7.228;2023-11-22T07:50:51;2.30;99.90
50969;DHT22;36982;51.474;7.228;2023-11-22T07:53:18;2.30;99.90
50969;DHT22;36982;51.474;7.228;2023-11-22T07:55:44;2.30;99.90
50969;DHT22;36982;51.474;7.228;2023-11-22T07:58:10;2.30;99.90
50969;DHT22;36982;51.474;7.228;2023-11-22T08:00:36;2.40;99.90
50969;DHT22;36982;51.474;7.228;2023-11-22T08:03:07;2.40;99.90
50969;DHT22;36982;51.474;7.228;2023-11-22T08:05:33;2.40;99.90
50969;DHT22;36982;51.474;7.228;2023-11-22T08:08:04;2.50;99.90
50969;DHT22;36982;51.474;7.228;2023-11-22T08:10:36;2.60;99.90
50969;DHT22;36982;51.474;7.228;2023-11-22T08:13:03;2.60;99.90
50969;DHT22;36982;51.474;7.228;2023-11-22T08:15:29;2.60;99.90
50969;DHT22;36982;51.474;7.228;2023-11-22T08:17:57;2.60;99.90
50969;DHT22;36982;51.474;7.228;2023-11-22T08:20:24;2.80;99.90
50969;DHT22;36982;51.474;7.228;2023-11-22T08:22:50;2.90;99.90
50969;DHT22;36982;51.474;7.228;2023-11-22T08:25:16;2.80;99.90
50969;DHT22;36982;51.474;7.228;2023-11-22T08:27:42;2.80;99.90
50969;DHT22;36982;51.474;7.228;2023-11-22T08:30:09;2.90;99.90
50969;DHT22;36982;51.474;7.228;2023-11-22T08:32:45;2.80;99.90
50969;DHT22;36982;51.474;7.228;2023-11-22T08:35:16;2.70;99.90
50969;DHT22;36982;51.474;7.228;2023-11-22T08:37:42;2.90;99.90
50969;DHT22;36982;51.474;7.228;2023-11-22T08:40:08;2.90;99.90
50969;DHT22;36982;51.474;7.228;2023-11-22T08:42:36;2.90;99.90
50969;DHT22;36982;51.474;7.228;2023-11-22T08:45:03;3.00;99.90
50969;DHT22;36982;51.474;7.228;2023-11-22T08:47:29;3.10;99.90
50969;DHT22;36982;51.474;7.228;2023-11-22T08:49:56;3.10;99.90
50969;DHT22;36982;51.474;7.228;2023-11-22T08:52:23;3.20;99.90
50969;DHT22;36982;51.474;7.228;2023-11-22T08:54:49;3.20;99.70
50969;DHT22;36982;51.474;7.228;2023-11-22T08:57:15;3.20;99.90
50969;DHT22;36982;51.474;7.228;2023-11-22T08:59:41;3.30;99.60
50969;DHT22;36982;51.474;7.228;2023-11-22T09:02:06;3.30;99.50
50969;DHT22;36982;51.474;7.228;2023-11-22T09:04:37;3.40;97.40
50969;DHT22;36982;51.474;7.228;2023-11-22T09:07:03;3.50;96.00
50969;DHT22;36982;51.474;7.228;2023-11-22T09:09:31;3.50;95.30
50969;DHT22;36982;51.474;7.228;2023-11-22T09:11:57;3.50;95.60
50969;DHT22;36982;51.474;7.228;2023-11-22T09:14:23;3.60;95.50
50969;DHT22;36982;51.474;7.228;2023-11-22T09:16:50;3.70;94.60
50969;DHT22;36982;51.474;7.228;2023-11-22T09:19:20;3.70;90.10
50969;DHT22;36982;51.474;7.228;2023-11-22T09:21:46;3.90;89.80
50969;DHT22;36982;51.474;7.228;2023-11-22T09:24:12;3.80;87.10
50969;DHT22;36982;51.474;7.228;2023-11-22T09:26:38;3.90;81.20
50969;DHT22;36982;51.474;7.228;2023-11-22T09:29:03;3.90;84.10
50969;DHT22;36982;51.474;7.228;2023-11-22T09:31:30;4.10;79.10
50969;DHT22;36982;51.474;7.228;2023-11-22T09:33:56;4.20;71.30
50969;DHT22;36982;51.474;7.228;2023-11-22T09:36:22;4.30;73.40
50969;DHT22;36982;51.474;7.228;2023-11-22T09:38:49;4.40;64.20
50969;DHT22;36982;51.474;7.228;2023-11-22T09:41:15;4.40;68.10
50969;DHT22;36982;51.474;7.228;2023-11-22T09:43:43;4.50;67.40
50969;DHT22;36982;51.474;7.228;2023-11-22T09:46:09;4.60;66.60
50969;DHT22;36982;51.474;7.228;2023-11-22T09:48:37;4.70;62.00
50969;DHT22;36982;51.474;7.228;2023-11-22T09:51:23;4.80;62.90
50969;DHT22;36982;51.474;7.228;2023-11-22T09:53:55;4.80;52.00
50969;DHT22;36982;51.474;7.228;2023-11-22T09:56:23;4.70;48.50
50969;DHT22;36982;51.474;7.228;2023-11-22T09:58:52;4.70;11.50
50969;DHT22;36982;51.474;7.228;2023-11-22T10:01:22;4.70;1.00
50969;DHT22;36982;51.474;7.228;2023-11-22T10:03:47;4.70;1.00
50969;DHT22;36982;51.474;7.228;2023-11-22T10:06:13;4.70;1.00
50969;DHT22;36982;51.474;7.228;2023-11-22T10:08:40;4.80;1.00
50969;DHT22;36982;51.474;7.228;2023-11-22T10:11:06;4.80;1.00
50969;DHT22;36982;51.474;7.228;2023-11-22T10:13:32;4.80;1.00
50969;DHT22;36982;51.474;7.228;2023-11-22T10:16:12;4.70;1.00
50969;DHT22;36982;51.474;7.228;2023-11-22T10:18:42;4.70;1.00
50969;DHT22;36982;51.474;7.228;2023-11-22T10:21:26;4.70;1.00
50969;DHT22;36982;51.474;7.228;2023-11-22T10:23:57;4.80;1.00
50969;DHT22;36982;51.474;7.228;2023-11-22T10:26:25;4.90;1.00
50969;DHT22;36982;51.474;7.228;2023-11-22T10:28:54;4.90;1.00
50969;DHT22;36982;51.474;7.228;2023-11-22T10:31:20;5.00;1.00
50969;DHT22;36982;51.474;7.228;2023-11-22T10:33:49;5.00;1.00
50969;DHT22;36982;51.474;7.228;2023-11-22T10:36:16;5.10;1.00
50969;DHT22;36982;51.474;7.228;2023-11-22T10:38:45;5.10;1.00
50969;DHT22;36982;51.474;7.228;2023-11-22T10:41:12;5.00;1.00
50969;DHT22;36982;51.474;7.228;2023-11-22T10:43:39;5.00;1.00
50969;DHT22;36982;51.474;7.228;2023-11-22T10:46:05;5.00;1.00
50969;DHT22;36982;51.474;7.228;2023-11-22T10:48:32;5.10;1.00
50969;DHT22;36982;51.474;7.228;2023-11-22T10:51:03;5.20;1.00
50969;DHT22;36982;51.474;7.228;2023-11-22T10:53:36;5.20;1.00
50969;DHT22;36982;51.474;7.228;2023-11-22T10:56:15;5.20;1.00
50969;DHT22;36982;51.474;7.228;2023-11-22T10:58:47;5.40;1.00
50969;DHT22;36982;51.474;7.228;2023-11-22T11:01:15;5.60;99.90
50969;DHT22;36982;51.474;7.228;2023-11-22T11:06:37;5.60;99.90
50969;DHT22;36982;51.474;7.228;2023-11-22T11:09:06;5.80;99.90
50969;DHT22;36982;51.474;7.228;2023-11-22T11:11:35;6.00;99.90
50969;DHT22;36982;51.474;7.228;2023-11-22T11:14:02;5.90;99.90
50969;DHT22;36982;51.474;7.228;2023-11-22T11:16:30;6.00;99.90
50969;DHT22;36982;51.474;7.228;2023-11-22T11:18:56;6.10;99.90
50969;DHT22;36982;51.474;7.228;2023-11-22T11:21:23;6.20;99.90
50969;DHT22;36982;51.474;7.228;2023-11-22T11:23:52;6.30;99.90
50969;DHT22;36982;51.474;7.228;2023-11-22T11:26:20;6.30;93.00
50969;DHT22;36982;51.474;7.228;2023-11-22T11:28:48;6.10;99.90
50969;DHT22;36982;51.474;7.228;2023-11-22T11:31:14;6.30;99.90
50969;DHT22;36982;51.474;7.228;2023-11-22T11:36:27;6.40;77.50
50969;DHT22;36982;51.474;7.228;2023-11-22T11:38:55;6.40;99.90
50969;DHT22;36982;51.474;7.228;2023-11-22T11:41:26;6.60;99.90
50969;DHT22;36982;51.474;7.228;2023-11-22T11:43:53;6.50;69.90
50969;DHT22;36982;51.474;7.228;2023-11-22T11:46:20;6.50;99.90
50969;DHT22;36982;51.474;7.228;2023-11-22T11:48:49;6.30;67.70
50969;DHT22;36982;51.474;7.228;2023-11-22T11:51:17;6.20;99.90
50969;DHT22;36982;51.474;7.228;2023-11-22T11:53:44;6.20;99.90
50969;DHT22;36982;51.474;7.228;2023-11-22T11:56:10;6.30;99.90
50969;DHT22;36982;51.474;7.228;2023-11-22T11:58:35;6.40;99.90
50969;DHT22;36982;51.474;7.228;2023-11-22T12:01:01;6.40;99.90
50969;DHT22;36982;51.474;7.228;2023-11-22T12:03:28;6.40;1.00
50969;DHT22;36982;51.474;7.228;2023-11-22T12:05:53;6.40;1.20
50969;DHT22;36982;51.474;7.228;2023-11-22T12:08:19;6.50;1.00
50969;DHT22;36982;51.474;7.228;2023-11-22T12:10:45;6.40;1.00
50969;DHT22;36982;51.474;7.228;2023-11-22T12:13:21;6.20;99.90
50969;DHT22;36982;51.474;7.228;2023-11-22T12:15:52;6.10;1.00
50969;DHT22;36982;51.474;7.228;2023-11-22T12:18:22;6.10;99.90
50969;DHT22;36982;51.474;7.228;2023-11-22T12:21:15;6.00;99.90
50969;DHT22;36982;51.474;7.228;2023-11-22T12:23:42;6.00;99.90
50969;DHT22;36982;51.474;7.228;2023-11-22T12:26:15;5.90;99.90
50969;DHT22;36982;51.474;7.228;2023-11-22T12:28:44;5.80;99.90
50969;DHT22;36982;51.474;7.228;2023-11-22T12:31:11;5.70;99.90
50969;DHT22;36982;51.474;7.228;2023-11-22T12:33:38;5.60;99.90
50969;DHT22;36982;51.474;7.228;2023-11-22T12:36:05;5.50;99.90
50969;DHT22;36982;51.474;7.228;2023-11-22T12:38:32;5.30;99.90
50969;DHT22;36982;51.474;7.228;2023-11-22T12:40:59;5.30;99.90
50969;DHT22;36982;51.474;7.228;2023-11-22T12:43:25;5.30;99.90
50969;DHT22;36982;51.474;7.228;2023-11-22T12:46:00;5.30;99.90
50969;DHT22;36982;51.474;7.228;2023-11-22T12:48:26;5.20;99.90
50969;DHT22;36982;51.474;7.228;2023-11-22T12:50:55;5.30;99.90
50969;DHT22;36982;51.474;7.228;2023-11-22T12:53:21;5.40;99.90
50969;DHT22;36982;51.474;7.228;2023-11-22T12:55:49;5.40;99.90
50969;DHT22;36982;51.474;7.228;2023-11-22T12:58:16;5.50;99.90
50969;DHT22;36982;51.474;7.228;2023-11-22T13:00:43;5.40;99.90
50969;DHT22;36982;51.474;7.228;2023-11-22T13:03:09;5.30;99.90
50969;DHT22;36982;51.474;7.228;2023-11-22T13:05:40;5.40;99.90
50969;DHT22;36982;51.474;7.228;2023-11-22T13:08:08;5.50;1.00
50969;DHT22;36982;51.474;7.228;2023-11-22T13:10:36;5.50;1.00
50969;DHT22;36982;51.474;7.228;2023-11-22T13:13:02;5.30;1.00
50969;DHT22;36982;51.474;7.228;2023-11-22T13:15:27;5.30;1.00
50969;DHT22;36982;51.474;7.228;2023-11-22T13:17:54;5.30;1.00
50969;DHT22;36982;51.474;7.228;2023-11-22T13:20:24;5.40;1.00
50969;DHT22;36982;51.474;7.228;2023-11-22T13:22:52;5.40;1.00
50969;DHT22;36982;51.474;7.228;2023-11-22T13:25:17;5.50;1.00
50969;DHT22;36982;51.474;7.228;2023-11-22T13:27:45;5.50;1.00
50969;DHT22;36982;51.474;7.228;2023-11-22T13:30:12;5.50;1.00
50969;DHT22;36982;51.474;7.228;2023-11-22T13:32:38;5.60;1.00
50969;DHT22;36982;51.474;7.228;2023-11-22T13:35:06;5.70;99.90
50969;DHT22;36982;51.474;7.228;2023-11-22T13:37:39;5.90;99.90
50969;DHT22;36982;51.474;7.228;2023-11-22T13:40:08;6.00;99.90
50969;DHT22;36982;51.474;7.228;2023-11-22T13:42:43;6.10;99.90
50969;DHT22;36982;51.474;7.228;2023-11-22T13:45:13;6.10;99.90
50969;DHT22;36982;51.474;7.228;2023-11-22T13:47:47;6.30;1.00
50969;DHT22;36982;51.474;7.228;2023-11-22T13:50:17;6.30;69.20
50969;DHT22;36982;51.474;7.228;2023-11-22T13:52:48;6.40;99.90
50969;DHT22;36982;51.474;7.228;2023-11-22T13:55:14;6.30;99.90
50969;DHT22;36982;51.474;7.228;2023-11-22T13:57:42;6.30;99.90
50969;DHT22;36982;51.474;7.228;2023-11-22T14:00:09;6.40;99.90
50969;DHT22;36982;51.474;7.228;2023-11-22T14:02:36;6.40;99.90
50969;DHT22;36982;51.474;7.228;2023-11-22T14:05:02;6.30;99.90
50969;DHT22;36982;51.474;7.228;2023-11-22T14:07:33;6.30;99.90
50969;DHT22;36982;51.474;7.228;2023-11-22T14:09:59;6.20;99.90
50969;DHT22;36982;51.474;7.228;2023-11-22T14:12:24;6.30;99.90
50969;DHT22;36982;51.474;7.228;2023-11-22T14:14:51;6.30;99.90
50969;DHT22;36982;51.474;7.228;2023-11-22T14:17:17;6.30;99.90
50969;DHT22;36982;51.474;7.228;2023-11-22T14:19:46;6.30;99.90
50969;DHT22;36982;51.474;7.228;2023-11-22T14:22:12;6.30;99.90
50969;DHT22;36982;51.474;7.228;2023-11-22T14:24:39;6.40;99.60
50969;DHT22;36982;51.474;7.228;2023-11-22T14:27:05;6.30;99.90
50969;DHT22;36982;51.474;7.228;2023-11-22T14:29:31;6.30;99.90
50969;DHT22;36982;51.474;7.228;2023-11-22T14:31:58;6.30;99.90
50969;DHT22;36982;51.474;7.228;2023-11-22T14:34:24;6.40;99.90
50969;DHT22;36982;51.474;7.228;2023-11-22T14:36:49;6.30;99.90
50969;DHT22;36982;51.474;7.228;2023-11-22T14:39:15;6.40;99.90
50969;DHT22;36982;51.474;7.228;2023-11-22T14:41:41;6.40;99.90
50969;DHT22;36982;51.474;7.228;2023-11-22T14:44:07;6.30;1.00
50969;DHT22;36982;51.474;7.228;2023-11-22T14:46:34;6.30;99.90
50969;DHT22;36982;51.474;7.228;2023-11-22T14:49:02;6.30;1.00
50969;DHT22;36982;51.474;7.228;2023-11-22T14:51:28;6.30;1.00
50969;DHT22;36982;51.474;7.228;2023-11-22T14:53:54;6.40;1.00
50969;DHT22;36982;51.474;7.228;2023-11-22T14:56:19;6.40;1.00
50969;DHT22;36982;51.474;7.228;2023-11-22T14:58:46;6.40;1.00
50969;DHT22;36982;51.474;7.228;2023-11-22T15:01:19;6.30;1.00
50969;DHT22;36982;51.474;7.228;2023-11-22T15:03:45;6.20;1.00
50969;DHT22;36982;51.474;7.228;2023-11-22T15:06:11;6.30;1.00
50969;DHT22;36982;51.474;7.228;2023-11-22T15:08:37;6.30;1.00
50969;DHT22;36982;51.474;7.228;2023-11-22T15:11:03;6.30;1.00
50969;DHT22;36982;51.474;7.228;2023-11-22T15:13:30;6.20;1.00
50969;DHT22;36982;51.474;7.228;2023-11-22T15:15:56;6.30;1.00
50969;DHT22;36982;51.474;7.228;2023-11-22T15:18:22;6.30;1.00
50969;DHT22;36982;51.474;7.228;2023-11-22T15:20:50;6.30;1.00
50969;DHT22;36982;51.474;7.228;2023-11-22T15:23:15;6.20;1.00
50969;DHT22;36982;51.474;7.228;2023-11-22T15:25:41;6.20;1.00
50969;DHT22;36982;51.474;7.228;2023-11-22T15:28:07;6.00;1.00
50969;DHT22;36982;51.474;7.228;2023-11-22T15:30:34;6.00;1.00
50969;DHT22;36982;51.474;7.228;2023-11-22T15:33:00;6.00;1.00
50969;DHT22;36982;51.474;7.228;2023-11-22T15:35:27;6.00;1.00
50969;DHT22;36982;51.474;7.228;2023-11-22T15:37:53;6.00;1.00
50969;DHT22;36982;51.474;7.228;2023-11-22T15:40:18;5.90;1.00
50969;DHT22;36982;51.474;7.228;2023-11-22T15:42:45;5.90;1.00
50969;DHT22;36982;51.474;7.228;2023-11-22T15:45:11;5.80;1.00
50969;DHT22;36982;51.474;7.228;2023-11-22T15:47:38;5.80;1.00
50969;DHT22;36982;51.474;7.228;2023-11-22T15:50:04;5.90;1.00
50969;DHT22;36982;51.474;7.228;2023-11-22T15:52:34;5.90;1.00